Time,TemperatureF,DewpointF,PressureIn,WindDirection,WindDirectionDegrees,WindSpeedMPH,WindSpeedGustMPH,Humidity,HourlyPrecipIn,Conditions,Clouds,dailyrainin,SoftwareType,DateUTC
2013-08-05 00:01:00,68.2,66.1,30.06,ESE,119,0.0,0.0,93,0.00,,---,0.00,VWS V14.01,2013-08-05 04:01:00,
2013-08-05 00:02:00,68.1,66.0,30.06,ESE,119,0.0,0.0,93,0.00,,---,0.00,VWS V14.01,2013-08-05 04:02:00,
2013-08-05 00:03:00,68.1,66.0,30.06,ESE,119,0.0,0.0,93,0.00,,---,0.00,VWS V14.01,2013-08-05 04:03:00,
2013-08-05 00:05:00,68.1,66.0,30.06,ESE,119,0.0,0.0,93,0.00,,---,0.00,VWS V14.01,2013-08-05 04:05:00,
2013-08-05 00:10:00,67.9,65.8,30.06,ESE,119,0.0,0.0,93,0.00,,---,0.00,VWS V14.01,2013-08-05 04:10:00,
2013-08-05 00:15:00,67.8,65.7,30.06,ESE,119,0.0,0.0,93,0.00,,---,0.00,VWS V14.01,2013-08-05 04:15:00,
2013-08-05 00:20:00,67.7,65.6,30.06,ESE,119,0.0,0.0,93,0.00,,---,0.00,VWS V14.01,2013-08-05 04:20:00,
2013-08-05 00:25:00,67.8,66.0,30.07,ESE,119,0.0,0.0,94,0.00,,---,0.00,VWS V14.01,2013-08-05 04:25:00,
2013-08-05 00:31:00,67.9,65.8,30.07,ESE,119,0.0,0.0,93,0.00,,---,0.00,VWS V14.01,2013-08-05 04:31:00,
2013-08-05 00:36:00,67.8,66.0,30.07,ESE,119,0.0,0.0,94,0.00,,---,0.00,VWS V14.01,2013-08-05 04:36:00,
2013-08-05 00:41:00,67.9,66.1,30.07,ESE,119,0.0,0.0,94,0.00,,---,0.00,VWS V14.01,2013-08-05 04:41:00,
2013-08-05 00:46:00,67.7,65.6,30.07,ESE,119,0.0,0.0,93,0.00,,---,0.00,VWS V14.01,2013-08-05 04:46:00,
2013-08-05 00:52:00,67.7,65.9,30.07,ESE,119,0.0,0.0,94,0.00,,---,0.00,VWS V14.01,2013-08-05 04:52:00,
2013-08-05 00:57:00,67.7,65.9,30.07,ESE,119,0.0,0.0,94,0.00,,---,0.00,VWS V14.01,2013-08-05 04:57:00,
2013-08-05 01:02:00,67.6,65.5,30.07,ESE,119,0.0,0.0,93,0.00,,---,0.00,VWS V14.01,2013-08-05 05:02:00,
2013-08-05 01:07:00,67.5,65.7,30.07,ESE,119,0.0,0.0,94,0.00,,---,0.00,VWS V14.01,2013-08-05 05:07:00,
2013-08-05 01:13:00,67.6,65.8,30.07,ESE,117,0.0,0.0,94,0.00,,---,0.00,VWS V14.01,2013-08-05 05:13:00,
2013-08-05 01:18:00,67.6,65.8,30.07,ESE,117,0.0,0.0,94,0.00,,---,0.00,VWS V14.01,2013-08-05 05:18:00,
2013-08-05 01:23:00,67.5,65.7,30.08,ESE,117,0.0,0.0,94,0.00,,---,0.00,VWS V14.01,2013-08-05 05:23:00,
2013-08-05 01:28:00,67.6,65.8,30.08,ESE,117,0.0,0.0,94,0.00,,---,0.00,VWS V14.01,2013-08-05 05:28:00,
2013-08-05 01:33:00,67.7,65.9,30.08,ESE,117,0.0,0.0,94,0.00,,---,0.00,VWS V14.01,2013-08-05 05:33:00,
2013-08-05 01:39:00,67.7,65.9,30.07,ESE,117,0.0,0.0,94,0.00,,---,0.00,VWS V14.01,2013-08-05 05:39:00,
2013-08-05 01:44:00,67.7,65.9,30.07,ESE,117,0.0,0.0,94,0.00,,---,0.00,VWS V14.01,2013-08-05 05:44:00,
2013-08-05 01:49:00,67.8,66.0,30.07,ESE,117,0.0,0.0,94,0.00,,---,0.00,VWS V14.01,2013-08-05 05:49:00,
2013-08-05 01:54:00,67.7,65.9,30.06,ESE,117,0.0,0.0,94,0.00,,---,0.00,VWS V14.01,2013-08-05 05:54:00,
2013-08-05 02:00:00,67.6,65.8,30.06,ESE,117,0.0,0.0,94,0.00,,---,0.00,VWS V14.01,2013-08-05 06:00:00,
2013-08-05 02:05:00,67.4,65.6,30.06,ESE,117,0.0,0.0,94,0.00,,---,0.00,VWS V14.01,2013-08-05 06:05:00,
2013-08-05 02:10:00,67.4,65.6,30.06,ESE,117,0.0,0.0,94,0.00,,---,0.00,VWS V14.01,2013-08-05 06:10:00,
2013-08-05 02:16:00,67.3,65.5,30.06,ESE,117,0.0,0.0,94,0.00,,---,0.00,VWS V14.01,2013-08-05 06:16:00,
2013-08-05 02:21:00,67.4,65.6,30.07,ESE,117,0.0,0.0,94,0.00,,---,0.00,VWS V14.01,2013-08-05 06:21:00,
2013-08-05 02:26:00,67.4,65.6,30.07,ESE,117,0.0,0.0,94,0.00,,---,0.00,VWS V14.01,2013-08-05 06:26:00,
2013-08-05 02:31:00,67.5,65.7,30.06,ESE,117,0.0,0.0,94,0.00,,---,0.00,VWS V14.01,2013-08-05 06:31:00,
2013-08-05 02:36:00,67.6,65.8,30.06,ESE,117,0.0,0.0,94,0.00,,---,0.00,VWS V14.01,2013-08-05 06:36:00,
2013-08-05 02:41:00,67.6,65.8,30.06,ESE,117,0.0,0.0,94,0.00,,---,0.00,VWS V14.01,2013-08-05 06:41:00,
2013-08-05 02:47:00,67.6,65.8,30.06,ESE,117,0.0,0.0,94,0.00,,---,0.00,VWS V14.01,2013-08-05 06:47:00,
2013-08-05 02:52:00,67.6,65.8,30.06,ESE,117,0.0,0.0,94,0.00,,---,0.00,VWS V14.01,2013-08-05 06:52:00,
2013-08-05 02:58:00,67.6,65.8,30.06,ESE,117,0.0,0.0,94,0.00,,---,0.00,VWS V14.01,2013-08-05 06:58:00,
2013-08-05 03:03:00,67.7,65.9,30.06,ESE,117,0.0,0.0,94,0.00,,---,0.00,VWS V14.01,2013-08-05 07:03:00,
2013-08-05 03:08:00,67.9,66.1,30.06,ESE,117,0.0,0.0,94,0.00,,---,0.00,VWS V14.01,2013-08-05 07:08:00,
2013-08-05 03:13:00,68.0,66.2,30.06,ESE,117,0.0,0.0,94,0.00,,---,0.00,VWS V14.01,2013-08-05 07:13:00,
2013-08-05 03:18:00,68.0,66.2,30.05,ESE,117,0.0,0.0,94,0.00,,---,0.00,VWS V14.01,2013-08-05 07:18:00,
2013-08-05 03:23:00,67.8,66.0,30.05,ESE,117,0.0,0.0,94,0.00,,---,0.00,VWS V14.01,2013-08-05 07:23:00,
2013-08-05 03:28:00,67.7,65.9,30.05,ESE,117,0.0,0.0,94,0.00,,---,0.00,VWS V14.01,2013-08-05 07:28:00,
2013-08-05 03:33:00,67.6,65.8,30.05,ESE,117,0.0,0.0,94,0.00,,---,0.00,VWS V14.01,2013-08-05 07:33:00,
2013-08-05 03:39:00,67.5,65.7,30.06,ESE,117,0.0,0.0,94,0.00,,---,0.00,VWS V14.01,2013-08-05 07:39:00,
2013-08-05 03:44:00,67.6,66.1,30.05,ESE,117,0.0,0.0,95,0.00,,---,0.00,VWS V14.01,2013-08-05 07:44:00,
2013-08-05 03:49:00,67.5,65.7,30.05,ESE,117,0.0,0.0,94,0.00,,---,0.00,VWS V14.01,2013-08-05 07:49:00,
2013-08-05 03:54:00,67.5,66.0,30.05,ESE,117,0.0,0.0,95,0.00,,---,0.00,VWS V14.01,2013-08-05 07:54:00,
2013-08-05 03:59:00,67.4,65.6,30.05,ESE,117,0.0,0.0,94,0.00,,---,0.00,VWS V14.01,2013-08-05 07:59:00,
2013-08-05 04:04:00,67.3,65.5,30.05,ESE,117,0.0,0.0,94,0.00,,---,0.00,VWS V14.01,2013-08-05 08:04:00,
2013-08-05 04:09:00,67.2,65.4,30.05,ESE,117,0.0,0.0,94,0.00,,---,0.00,VWS V14.01,2013-08-05 08:09:00,
2013-08-05 04:15:00,67.3,65.8,30.05,ESE,117,0.0,0.0,95,0.00,,---,0.00,VWS V14.01,2013-08-05 08:15:00,
2013-08-05 04:20:00,67.3,65.8,30.05,ESE,117,0.0,0.0,95,0.00,,---,0.00,VWS V14.01,2013-08-05 08:20:00,
2013-08-05 04:25:00,67.2,65.7,30.05,ESE,117,0.0,0.0,95,0.00,,---,0.00,VWS V14.01,2013-08-05 08:25:00,
2013-08-05 04:30:00,67.2,65.7,30.05,ESE,117,0.0,0.0,95,0.00,,---,0.00,VWS V14.01,2013-08-05 08:30:00,
2013-08-05 04:35:00,67.2,65.7,30.05,ESE,117,0.0,0.0,95,0.00,,---,0.00,VWS V14.01,2013-08-05 08:35:00,
2013-08-05 04:41:00,67.3,65.8,30.05,ESE,117,0.0,0.0,95,0.00,,---,0.00,VWS V14.01,2013-08-05 08:41:00,
2013-08-05 04:49:00,67.3,65.8,30.05,ESE,117,0.0,0.0,95,0.00,,---,0.00,VWS V14.01,2013-08-05 08:49:00,
2013-08-05 04:54:00,67.4,65.9,30.05,ESE,117,0.0,0.0,95,0.00,,---,0.00,VWS V14.01,2013-08-05 08:54:00,
2013-08-05 05:00:00,67.4,65.9,30.05,ESE,117,0.0,0.0,95,0.00,,---,0.00,VWS V14.01,2013-08-05 09:00:00,
2013-08-05 05:06:00,67.3,65.8,30.05,ESE,117,0.0,0.0,95,0.00,,---,0.00,VWS V14.01,2013-08-05 09:06:00,
2013-08-05 05:11:00,67.3,65.8,30.05,ESE,117,0.0,0.0,95,0.00,,---,0.00,VWS V14.01,2013-08-05 09:11:00,
2013-08-05 05:17:00,67.3,65.8,30.05,ESE,117,0.0,0.0,95,0.00,,---,0.00,VWS V14.01,2013-08-05 09:17:00,
2013-08-05 05:23:00,67.2,65.7,30.05,ESE,105,0.0,0.0,95,0.00,,---,0.00,VWS V14.01,2013-08-05 09:23:00,
2013-08-05 05:29:00,67.3,65.8,30.06,ESE,105,0.0,0.0,95,0.00,,---,0.00,VWS V14.01,2013-08-05 09:29:00,
2013-08-05 05:36:00,67.2,65.7,30.06,East,90,0.0,0.0,95,0.00,,---,0.00,VWS V14.01,2013-08-05 09:36:00,
2013-08-05 05:42:00,67.2,65.7,30.06,East,90,0.0,0.0,95,0.00,,---,0.00,VWS V14.01,2013-08-05 09:42:00,
2013-08-05 05:47:00,67.2,65.7,30.06,East,90,0.0,0.0,95,0.00,,---,0.00,VWS V14.01,2013-08-05 09:47:00,
2013-08-05 05:53:00,67.3,65.8,30.06,East,90,0.0,0.0,95,0.00,,---,0.00,VWS V14.01,2013-08-05 09:53:00,
2013-08-05 05:58:00,67.3,65.8,30.07,East,90,0.0,0.0,95,0.00,,---,0.00,VWS V14.01,2013-08-05 09:58:00,
2013-08-05 06:04:00,67.4,65.9,30.07,East,90,0.0,0.0,95,0.00,,---,0.00,VWS V14.01,2013-08-05 10:04:00,
2013-08-05 06:09:00,67.4,65.9,30.07,East,90,0.0,0.0,95,0.00,,---,0.00,VWS V14.01,2013-08-05 10:09:00,
2013-08-05 06:14:00,67.5,66.0,30.06,East,90,0.0,0.0,95,0.00,,---,0.00,VWS V14.01,2013-08-05 10:14:00,
2013-08-05 06:19:00,67.4,65.9,30.07,East,90,0.0,0.0,95,0.00,,---,0.00,VWS V14.01,2013-08-05 10:19:00,
2013-08-05 06:25:00,67.2,65.4,30.07,East,90,0.0,0.0,94,0.00,,---,0.00,VWS V14.01,2013-08-05 10:25:00,
2013-08-05 06:30:00,67.2,65.4,30.07,East,90,0.0,0.0,94,0.00,,---,0.00,VWS V14.01,2013-08-05 10:30:00,
2013-08-05 06:35:00,67.0,65.5,30.07,East,90,0.0,0.0,95,0.00,,---,0.00,VWS V14.01,2013-08-05 10:35:00,
2013-08-05 06:40:00,67.0,65.5,30.08,East,90,0.0,0.0,95,0.00,,---,0.00,VWS V14.01,2013-08-05 10:40:00,
2013-08-05 06:46:00,66.9,65.4,30.08,East,90,0.0,0.0,95,0.00,,---,0.00,VWS V14.01,2013-08-05 10:46:00,
2013-08-05 06:53:00,66.9,65.4,30.08,East,90,0.0,0.0,95,0.00,,---,0.00,VWS V14.01,2013-08-05 10:53:00,
2013-08-05 06:59:00,66.8,65.3,30.08,East,90,0.0,0.0,95,0.00,,---,0.00,VWS V14.01,2013-08-05 10:59:00,
2013-08-05 07:04:00,66.8,65.3,30.08,East,90,0.0,0.0,95,0.00,,---,0.00,VWS V14.01,2013-08-05 11:04:00,
2013-08-05 07:09:00,66.8,65.3,30.09,East,90,0.0,0.0,95,0.00,,---,0.00,VWS V14.01,2013-08-05 11:09:00,
2013-08-05 07:14:00,66.9,65.4,30.09,East,90,0.0,0.0,95,0.00,,---,0.00,VWS V14.01,2013-08-05 11:14:00,
2013-08-05 07:19:00,66.9,65.4,30.10,East,90,0.0,0.0,95,0.00,,---,0.00,VWS V14.01,2013-08-05 11:19:00,
2013-08-05 07:25:00,67.1,65.6,30.09,East,90,0.0,0.0,95,0.00,,---,0.00,VWS V14.01,2013-08-05 11:25:00,
2013-08-05 07:30:00,67.4,65.9,30.09,East,90,0.0,0.0,95,0.00,,---,0.00,VWS V14.01,2013-08-05 11:30:00,
2013-08-05 07:35:00,67.6,66.1,30.09,East,90,0.0,1.0,95,0.00,,---,0.00,VWS V14.01,2013-08-05 11:35:00,
2013-08-05 07:42:00,68.0,66.2,30.10,East,90,0.0,1.0,94,0.00,,---,0.00,VWS V14.01,2013-08-05 11:42:00,
2013-08-05 07:47:00,68.4,66.6,30.10,East,90,0.0,0.0,94,0.00,,---,0.00,VWS V14.01,2013-08-05 11:47:00,
2013-08-05 07:53:00,68.8,66.7,30.10,East,82,1.0,2.0,93,0.00,,---,0.00,VWS V14.01,2013-08-05 11:53:00,
2013-08-05 07:58:00,69.2,66.8,30.10,East,82,0.0,2.0,92,0.00,,---,0.00,VWS V14.01,2013-08-05 11:58:00,
2013-08-05 08:03:00,69.7,67.3,30.10,East,82,0.0,2.0,92,0.00,,---,0.00,VWS V14.01,2013-08-05 12:03:00,
2013-08-05 08:08:00,70.1,67.0,30.11,East,81,0.0,2.0,90,0.00,,---,0.00,VWS V14.01,2013-08-05 12:08:00,
2013-08-05 08:14:00,70.3,66.9,30.11,East,81,0.0,2.0,89,0.00,,---,0.00,VWS V14.01,2013-08-05 12:14:00,
2013-08-05 08:19:00,70.0,66.9,30.11,East,81,0.0,1.0,90,0.00,,---,0.00,VWS V14.01,2013-08-05 12:19:00,
2013-08-05 08:25:00,70.1,67.0,30.11,East,82,0.0,1.0,90,0.00,,---,0.00,VWS V14.01,2013-08-05 12:25:00,
2013-08-05 08:30:00,70.6,67.5,30.11,East,81,0.0,1.0,90,0.00,,---,0.00,VWS V14.01,2013-08-05 12:30:00,
2013-08-05 08:35:00,71.0,67.9,30.11,East,82,0.0,1.0,90,0.00,,---,0.00,VWS V14.01,2013-08-05 12:35:00,
2013-08-05 08:41:00,71.9,68.5,30.11,East,82,1.0,1.0,89,0.00,,---,0.00,VWS V14.01,2013-08-05 12:41:00,
2013-08-05 08:47:00,72.0,68.3,30.11,East,79,0.0,1.0,88,0.00,,---,0.00,VWS V14.01,2013-08-05 12:47:00,
2013-08-05 08:53:00,72.3,68.2,30.11,East,79,0.0,2.0,87,0.00,,---,0.00,VWS V14.01,2013-08-05 12:53:00,
2013-08-05 08:58:00,72.8,68.4,30.11,ENE,69,1.0,2.0,86,0.00,,---,0.00,VWS V14.01,2013-08-05 12:58:00,
2013-08-05 09:03:00,72.8,67.7,30.11,ENE,78,0.0,1.0,84,0.00,,---,0.00,VWS V14.01,2013-08-05 13:03:00,
2013-08-05 09:10:00,73.1,68.3,30.11,ESE,113,0.0,3.0,85,0.00,,---,0.00,VWS V14.01,2013-08-05 13:10:00,
2013-08-05 09:15:00,74.4,68.6,30.11,SE,132,0.0,0.0,82,0.00,,---,0.00,VWS V14.01,2013-08-05 13:15:00,
2013-08-05 09:21:00,74.1,69.0,30.11,ESE,109,0.0,2.0,84,0.00,,---,0.00,VWS V14.01,2013-08-05 13:21:00,
2013-08-05 09:26:00,74.6,69.1,30.11,East,80,0.0,2.0,83,0.00,,---,0.00,VWS V14.01,2013-08-05 13:26:00,
2013-08-05 09:32:00,74.8,68.6,30.11,East,97,0.0,1.0,81,0.00,,---,0.00,VWS V14.01,2013-08-05 13:32:00,
2013-08-05 09:37:00,74.8,68.2,30.11,SSE,166,1.0,3.0,80,0.00,,---,0.00,VWS V14.01,2013-08-05 13:37:00,
2013-08-05 09:42:00,74.9,68.3,30.11,SSE,156,3.0,3.0,80,0.00,,---,0.00,VWS V14.01,2013-08-05 13:42:00,
2013-08-05 09:47:00,74.9,68.3,30.11,South,185,0.0,1.0,80,0.00,,---,0.00,VWS V14.01,2013-08-05 13:47:00,
2013-08-05 09:53:00,75.3,68.0,30.11,East,101,0.0,2.0,78,0.00,,---,0.00,VWS V14.01,2013-08-05 13:53:00,
2013-08-05 10:00:00,75.8,68.8,30.11,SE,133,2.0,2.0,79,0.00,,---,0.00,VWS V14.01,2013-08-05 14:00:00,
2013-08-05 10:05:00,76.1,68.8,30.11,SSE,154,1.0,6.0,78,0.00,,---,0.00,VWS V14.01,2013-08-05 14:05:00,
2013-08-05 10:11:00,75.8,67.7,30.11,SSE,161,4.0,6.0,76,0.00,,---,0.00,VWS V14.01,2013-08-05 14:11:00,
2013-08-05 10:17:00,75.6,67.5,30.11,SSE,147,1.0,2.0,76,0.00,,---,0.00,VWS V14.01,2013-08-05 14:17:00,
2013-08-05 10:22:00,75.5,67.4,30.11,SSE,166,2.0,4.0,76,0.00,,---,0.00,VWS V14.01,2013-08-05 14:22:00,
2013-08-05 10:27:00,76.2,69.2,30.11,SSE,160,3.0,4.0,79,0.00,,---,0.00,VWS V14.01,2013-08-05 14:27:00,
2013-08-05 10:33:00,76.8,68.3,30.11,SE,142,1.0,4.0,75,0.00,,---,0.00,VWS V14.01,2013-08-05 14:33:00,
2013-08-05 10:39:00,77.7,70.7,30.11,SSE,163,1.0,5.0,79,0.00,,---,0.00,VWS V14.01,2013-08-05 14:39:00,
2013-08-05 10:45:00,78.1,68.8,30.11,SSE,151,1.0,8.0,73,0.00,,---,0.00,VWS V14.01,2013-08-05 14:45:00,
2013-08-05 10:50:00,78.2,68.4,30.11,SSE,165,1.0,8.0,72,0.00,,---,0.00,VWS V14.01,2013-08-05 14:50:00,
2013-08-05 10:56:00,78.2,68.8,30.12,ESE,110,4.0,8.0,73,0.00,,---,0.00,VWS V14.01,2013-08-05 14:56:00,
2013-08-05 11:01:00,79.4,71.2,30.12,SE,142,1.0,1.0,76,0.00,,---,0.00,VWS V14.01,2013-08-05 15:01:00,
2013-08-05 11:07:00,79.6,69.8,30.12,ESE,109,0.0,7.0,72,0.00,,---,0.00,VWS V14.01,2013-08-05 15:07:00,
2013-08-05 11:11:00,79.8,69.6,30.12,South,186,3.0,7.0,71,0.00,,---,0.00,VWS V14.01,2013-08-05 15:11:00,
2013-08-05 11:17:00,80.0,70.2,30.12,SSE,167,2.0,2.0,72,0.00,,---,0.00,VWS V14.01,2013-08-05 15:17:00,
2013-08-05 11:23:00,79.9,70.1,30.11,South,187,3.0,5.0,72,0.00,,---,0.00,VWS V14.01,2013-08-05 15:23:00,
2013-08-05 11:30:00,79.5,68.4,30.11,SW,215,2.0,6.0,69,0.00,,---,0.00,VWS V14.01,2013-08-05 15:30:00,
2013-08-05 11:35:00,80.5,70.7,30.11,SSE,147,1.0,7.0,72,0.00,,---,0.00,VWS V14.01,2013-08-05 15:35:00,
2013-08-05 11:41:00,80.6,68.2,30.11,SSE,159,3.0,7.0,66,0.00,,---,0.00,VWS V14.01,2013-08-05 15:41:00,
2013-08-05 11:47:00,80.2,67.8,30.11,SE,140,3.0,5.0,66,0.00,,---,0.00,VWS V14.01,2013-08-05 15:47:00,
2013-08-05 11:53:00,80.5,68.1,30.11,SSE,160,5.0,5.0,66,0.00,,---,0.00,VWS V14.01,2013-08-05 15:53:00,
2013-08-05 11:58:00,80.5,66.8,30.11,SE,139,2.0,7.0,63,0.00,,---,0.00,VWS V14.01,2013-08-05 15:58:00,
2013-08-05 12:03:00,80.6,65.9,30.11,SSE,158,2.0,9.0,61,0.00,,---,0.00,VWS V14.01,2013-08-05 16:03:00,
2013-08-05 12:09:00,80.6,65.0,30.11,South,190,4.0,9.0,59,0.00,,---,0.00,VWS V14.01,2013-08-05 16:09:00,
2013-08-05 12:15:00,80.7,65.5,30.11,SSE,153,2.0,9.0,60,0.00,,---,0.00,VWS V14.01,2013-08-05 16:15:00,
2013-08-05 12:21:00,81.1,66.9,30.11,SE,133,1.0,7.0,62,0.00,,---,0.00,VWS V14.01,2013-08-05 16:21:00,
2013-08-05 12:26:00,81.3,65.6,30.11,SSW,209,2.0,9.0,59,0.00,,---,0.00,VWS V14.01,2013-08-05 16:26:00,
2013-08-05 12:31:00,81.6,66.9,30.11,SSE,153,3.0,5.0,61,0.00,,---,0.00,VWS V14.01,2013-08-05 16:31:00,
2013-08-05 12:37:00,82.0,66.8,30.10,SSE,153,4.0,6.0,60,0.00,,---,0.00,VWS V14.01,2013-08-05 16:37:00,
2013-08-05 12:42:00,82.2,68.4,30.10,SW,225,2.0,6.0,63,0.00,,---,0.00,VWS V14.01,2013-08-05 16:42:00,
2013-08-05 12:49:00,82.0,66.3,30.10,SSE,158,1.0,8.0,59,0.00,,---,0.00,VWS V14.01,2013-08-05 16:49:00,
2013-08-05 12:54:00,81.5,66.8,30.10,SE,127,0.0,8.0,61,0.00,,---,0.00,VWS V14.01,2013-08-05 16:54:00,
2013-08-05 12:59:00,80.9,66.7,30.10,South,176,1.0,8.0,62,0.00,,---,0.00,VWS V14.01,2013-08-05 16:59:00,
2013-08-05 13:05:00,80.5,67.7,30.10,South,170,1.0,5.0,65,0.00,,---,0.00,VWS V14.01,2013-08-05 17:05:00,
2013-08-05 13:10:00,80.5,67.7,30.10,SSE,155,3.0,6.0,65,0.00,,---,0.00,VWS V14.01,2013-08-05 17:10:00,
2013-08-05 13:15:00,80.9,66.7,30.09,South,177,3.0,4.0,62,0.00,,---,0.00,VWS V14.01,2013-08-05 17:15:00,
2013-08-05 13:22:00,81.4,67.6,30.09,SSE,150,0.0,5.0,63,0.00,,---,0.00,VWS V14.01,2013-08-05 17:22:00,
2013-08-05 13:27:00,81.8,68.4,30.09,SE,142,4.0,7.0,64,0.00,,---,0.00,VWS V14.01,2013-08-05 17:27:00,
2013-08-05 13:33:00,81.8,68.0,30.09,SSE,162,1.0,1.0,63,0.00,,---,0.00,VWS V14.01,2013-08-05 17:33:00,
2013-08-05 13:38:00,81.7,67.4,30.08,SE,145,1.0,4.0,62,0.00,,---,0.00,VWS V14.01,2013-08-05 17:38:00,
2013-08-05 13:45:00,81.9,69.0,30.08,SE,134,1.0,7.0,65,0.00,,---,0.00,VWS V14.01,2013-08-05 17:45:00,
2013-08-05 13:50:00,82.0,67.7,30.08,SSE,162,4.0,6.0,62,0.00,,---,0.00,VWS V14.01,2013-08-05 17:50:00,
2013-08-05 13:55:00,81.3,67.1,30.08,SE,136,1.0,6.0,62,0.00,,---,0.00,VWS V14.01,2013-08-05 17:55:00,
2013-08-05 14:02:00,82.7,68.8,30.08,SSE,155,1.0,6.0,63,0.00,,---,0.00,VWS V14.01,2013-08-05 18:02:00,
2013-08-05 14:08:00,83.0,67.7,30.08,South,173,3.0,7.0,60,0.00,,---,0.00,VWS V14.01,2013-08-05 18:08:00,
2013-08-05 14:14:00,83.5,68.7,30.07,SE,144,6.0,7.0,61,0.00,,---,0.00,VWS V14.01,2013-08-05 18:14:00,
2013-08-05 14:19:00,83.5,67.2,30.07,ESE,105,3.0,6.0,58,0.00,,---,0.00,VWS V14.01,2013-08-05 18:19:00,
2013-08-05 14:25:00,83.2,66.9,30.07,South,173,4.0,7.0,58,0.00,,---,0.00,VWS V14.01,2013-08-05 18:25:00,
2013-08-05 14:30:00,83.2,67.9,30.07,NW,315,3.0,7.0,60,0.00,,---,0.00,VWS V14.01,2013-08-05 18:30:00,
2013-08-05 14:36:00,84.5,69.6,30.07,South,178,2.0,6.0,61,0.00,,---,0.00,VWS V14.01,2013-08-05 18:36:00,
2013-08-05 14:42:00,84.0,66.6,30.07,SE,140,0.0,6.0,56,0.00,,---,0.00,VWS V14.01,2013-08-05 18:42:00,
2013-08-05 14:47:00,83.1,66.8,30.06,South,181,1.0,7.0,58,0.00,,---,0.00,VWS V14.01,2013-08-05 18:47:00,
2013-08-05 14:53:00,82.7,65.9,30.06,SSE,157,1.0,7.0,57,0.00,,---,0.00,VWS V14.01,2013-08-05 18:53:00,
2013-08-05 14:59:00,82.2,67.9,30.06,SSW,212,6.0,7.0,62,0.00,,---,0.00,VWS V14.01,2013-08-05 18:59:00,
2013-08-05 15:04:00,83.3,66.5,30.06,SSW,204,2.0,7.0,57,0.00,,---,0.00,VWS V14.01,2013-08-05 19:04:00,
2013-08-05 15:10:00,83.5,66.2,30.06,SSE,155,5.0,8.0,56,0.00,,---,0.00,VWS V14.01,2013-08-05 19:10:00,
2013-08-05 15:15:00,83.7,66.9,30.05,SSE,167,5.0,8.0,57,0.00,,---,0.00,VWS V14.01,2013-08-05 19:15:00,
2013-08-05 15:20:00,83.6,66.3,30.05,SSE,161,3.0,6.0,56,0.00,,---,0.00,VWS V14.01,2013-08-05 19:20:00,
2013-08-05 15:26:00,83.9,65.5,30.05,South,175,6.0,8.0,54,0.00,,---,0.00,VWS V14.01,2013-08-05 19:26:00,
2013-08-05 15:32:00,83.6,65.7,30.05,SSE,157,6.0,6.0,55,0.00,,---,0.00,VWS V14.01,2013-08-05 19:32:00,
2013-08-05 15:37:00,83.4,66.1,30.05,South,190,4.0,8.0,56,0.00,,---,0.00,VWS V14.01,2013-08-05 19:37:00,
2013-08-05 15:43:00,83.9,66.5,30.05,SW,219,1.0,8.0,56,0.00,,---,0.00,VWS V14.01,2013-08-05 19:43:00,
2013-08-05 15:48:00,84.9,67.5,30.05,SE,128,1.0,5.0,56,0.00,,---,0.00,VWS V14.01,2013-08-05 19:48:00,
2013-08-05 15:53:00,84.8,66.8,30.05,SSE,163,2.0,7.0,55,0.00,,---,0.00,VWS V14.01,2013-08-05 19:53:00,
2013-08-05 15:59:00,84.5,66.6,30.05,SSE,155,4.0,7.0,55,0.00,,---,0.00,VWS V14.01,2013-08-05 19:59:00,
2013-08-05 16:04:00,84.7,67.8,30.05,ESE,117,4.0,8.0,57,0.00,,---,0.00,VWS V14.01,2013-08-05 20:04:00,
2013-08-05 16:10:00,84.8,66.8,30.05,SSW,205,4.0,8.0,55,0.00,,---,0.00,VWS V14.01,2013-08-05 20:10:00,
2013-08-05 16:15:00,85.1,67.1,30.05,SE,144,5.0,8.0,55,0.00,,---,0.00,VWS V14.01,2013-08-05 20:15:00,
2013-08-05 16:21:00,84.7,68.3,30.04,West,259,6.0,8.0,58,0.00,,---,0.00,VWS V14.01,2013-08-05 20:21:00,
2013-08-05 16:26:00,84.3,67.4,30.05,SE,144,1.0,8.0,57,0.00,,---,0.00,VWS V14.01,2013-08-05 20:26:00,
2013-08-05 16:32:00,85.0,67.0,30.04,SW,229,5.0,6.0,55,0.00,,---,0.00,VWS V14.01,2013-08-05 20:32:00,
2013-08-05 16:37:00,84.5,65.5,30.04,SE,138,5.0,9.0,53,0.00,,---,0.00,VWS V14.01,2013-08-05 20:37:00,
2013-08-05 16:42:00,84.3,66.9,30.04,South,191,3.0,9.0,56,0.00,,---,0.00,VWS V14.01,2013-08-05 20:42:00,
2013-08-05 16:47:00,84.6,66.7,30.04,SSE,159,1.0,5.0,55,0.00,,---,0.00,VWS V14.01,2013-08-05 20:47:00,
2013-08-05 16:54:00,84.8,67.4,30.04,South,179,3.0,8.0,56,0.00,,---,0.00,VWS V14.01,2013-08-05 20:54:00,
2013-08-05 16:59:00,84.4,64.9,30.04,South,173,3.0,8.0,52,0.00,,---,0.00,VWS V14.01,2013-08-05 20:59:00,
2013-08-05 17:05:00,83.4,64.0,30.04,South,189,1.0,6.0,52,0.00,,---,0.00,VWS V14.01,2013-08-05 21:05:00,
2013-08-05 17:10:00,82.9,64.6,30.04,South,190,1.0,6.0,54,0.00,,---,0.00,VWS V14.01,2013-08-05 21:10:00,
2013-08-05 17:15:00,82.8,65.5,30.04,SSE,148,3.0,3.0,56,0.00,,---,0.00,VWS V14.01,2013-08-05 21:15:00,
2013-08-05 17:21:00,83.0,66.2,30.04,South,170,0.0,7.0,57,0.00,,---,0.00,VWS V14.01,2013-08-05 21:21:00,
2013-08-05 17:26:00,83.3,67.0,30.03,SSE,163,3.0,7.0,58,0.00,,---,0.00,VWS V14.01,2013-08-05 21:26:00,
2013-08-05 17:31:00,83.6,66.3,30.03,South,170,3.0,3.0,56,0.00,,---,0.00,VWS V14.01,2013-08-05 21:31:00,
2013-08-05 17:36:00,83.6,66.3,30.02,SSE,166,0.0,8.0,56,0.00,,---,0.00,VWS V14.01,2013-08-05 21:36:00,
2013-08-05 17:42:00,83.6,66.3,30.02,SSW,196,4.0,8.0,56,0.00,,---,0.00,VWS V14.01,2013-08-05 21:42:00,
2013-08-05 17:47:00,83.4,65.6,30.02,SSW,200,1.0,5.0,55,0.00,,---,0.00,VWS V14.01,2013-08-05 21:47:00,
2013-08-05 17:53:00,83.4,66.1,30.02,SSE,158,3.0,6.0,56,0.00,,---,0.00,VWS V14.01,2013-08-05 21:53:00,
2013-08-05 17:59:00,83.3,65.5,30.02,SSW,196,3.0,7.0,55,0.00,,---,0.00,VWS V14.01,2013-08-05 21:59:00,
2013-08-05 18:04:00,83.2,65.9,30.02,SSE,161,1.0,6.0,56,0.00,,---,0.00,VWS V14.01,2013-08-05 22:04:00,
2013-08-05 18:09:00,83.2,65.9,30.02,SSW,197,2.0,6.0,56,0.00,,---,0.00,VWS V14.01,2013-08-05 22:09:00,
2013-08-05 18:15:00,83.0,65.2,30.02,South,175,1.0,6.0,55,0.00,,---,0.00,VWS V14.01,2013-08-05 22:15:00,
2013-08-05 18:20:00,83.1,65.8,30.02,SSW,209,2.0,9.0,56,0.00,,---,0.00,VWS V14.01,2013-08-05 22:20:00,
2013-08-05 18:25:00,82.9,65.1,30.02,SSE,162,5.0,9.0,55,0.00,,---,0.00,VWS V14.01,2013-08-05 22:25:00,
2013-08-05 18:30:00,82.9,65.6,30.02,SSE,165,4.0,4.0,56,0.00,,---,0.00,VWS V14.01,2013-08-05 22:30:00,
2013-08-05 18:36:00,82.8,65.5,30.02,SW,228,0.0,6.0,56,0.00,,---,0.00,VWS V14.01,2013-08-05 22:36:00,
2013-08-05 18:42:00,82.8,66.0,30.02,South,190,0.0,6.0,57,0.00,,---,0.00,VWS V14.01,2013-08-05 22:42:00,
2013-08-05 18:48:00,82.8,66.0,30.02,SW,229,2.0,6.0,57,0.00,,---,0.00,VWS V14.01,2013-08-05 22:48:00,
2013-08-05 18:54:00,82.7,66.4,30.02,South,173,1.0,6.0,58,0.00,,---,0.00,VWS V14.01,2013-08-05 22:54:00,
2013-08-05 18:59:00,82.6,66.8,30.02,SSE,150,3.0,6.0,59,0.00,,---,0.00,VWS V14.01,2013-08-05 22:59:00,
2013-08-05 19:05:00,82.4,66.2,30.02,SW,216,0.0,5.0,58,0.00,,---,0.00,VWS V14.01,2013-08-05 23:05:00,
2013-08-05 19:10:00,82.2,66.5,30.02,South,178,1.0,5.0,59,0.00,,---,0.00,VWS V14.01,2013-08-05 23:10:00,
2013-08-05 19:15:00,82.0,66.8,30.03,SSE,157,1.0,3.0,60,0.00,,---,0.00,VWS V14.01,2013-08-05 23:15:00,
2013-08-05 19:21:00,81.7,66.5,30.02,SSE,166,3.0,6.0,60,0.00,,---,0.00,VWS V14.01,2013-08-05 23:21:00,
2013-08-05 19:27:00,81.4,66.7,30.03,South,188,0.0,6.0,61,0.00,,---,0.00,VWS V14.01,2013-08-05 23:27:00,
2013-08-05 19:32:00,81.2,66.9,30.03,SSW,203,1.0,3.0,62,0.00,,---,0.00,VWS V14.01,2013-08-05 23:32:00,
2013-08-05 19:37:00,81.1,67.3,30.03,South,185,3.0,5.0,63,0.00,,---,0.00,VWS V14.01,2013-08-05 23:37:00,
2013-08-05 19:43:00,80.9,67.1,30.03,South,186,0.0,5.0,63,0.00,,---,0.00,VWS V14.01,2013-08-05 23:43:00,
2013-08-05 19:48:00,80.7,67.4,30.03,South,185,0.0,2.0,64,0.00,,---,0.00,VWS V14.01,2013-08-05 23:48:00,
2013-08-05 19:53:00,80.5,67.7,30.03,SSE,167,0.0,2.0,65,0.00,,---,0.00,VWS V14.01,2013-08-05 23:53:00,
2013-08-05 19:59:00,80.1,68.2,30.03,South,182,0.0,3.0,67,0.00,,---,0.00,VWS V14.01,2013-08-05 23:59:00,
2013-08-05 20:04:00,79.5,68.0,30.04,South,182,0.0,1.0,68,0.00,,---,0.00,VWS V14.01,2013-08-06 00:04:00,
2013-08-05 20:09:00,78.7,68.1,30.04,South,182,0.0,1.0,70,0.00,,---,0.00,VWS V14.01,2013-08-06 00:09:00,
2013-08-05 20:15:00,77.8,68.1,30.04,South,182,0.0,1.0,72,0.00,,---,0.00,VWS V14.01,2013-08-06 00:15:00,
2013-08-05 20:20:00,77.4,68.1,30.04,South,182,0.0,0.0,73,0.00,,---,0.00,VWS V14.01,2013-08-06 00:20:00,
2013-08-05 20:26:00,77.5,68.2,30.04,South,182,0.0,1.0,73,0.00,,---,0.00,VWS V14.01,2013-08-06 00:26:00,
2013-08-05 20:31:00,77.4,68.1,30.04,South,182,0.0,1.0,73,0.00,,---,0.00,VWS V14.01,2013-08-06 00:31:00,
2013-08-05 20:37:00,77.5,68.6,30.04,SSE,168,0.0,2.0,74,0.00,,---,0.00,VWS V14.01,2013-08-06 00:37:00,
2013-08-05 20:42:00,77.5,68.6,30.04,SSE,168,0.0,2.0,74,0.00,,---,0.00,VWS V14.01,2013-08-06 00:42:00,
2013-08-05 20:47:00,77.5,68.6,30.05,SSE,168,0.0,1.0,74,0.00,,---,0.00,VWS V14.01,2013-08-06 00:47:00,
2013-08-05 20:54:00,77.2,68.7,30.04,SSE,154,0.0,2.0,75,0.00,,---,0.00,VWS V14.01,2013-08-06 00:54:00,
2013-08-05 20:59:00,77.0,68.5,30.04,South,179,1.0,3.0,75,0.00,,---,0.00,VWS V14.01,2013-08-06 00:59:00,
2013-08-05 21:05:00,76.8,68.3,30.04,South,173,1.0,3.0,75,0.00,,---,0.00,VWS V14.01,2013-08-06 01:05:00,
2013-08-05 21:10:00,76.7,68.2,30.05,South,173,0.0,3.0,75,0.00,,---,0.00,VWS V14.01,2013-08-06 01:10:00,
2013-08-05 21:15:00,76.5,68.4,30.05,SSE,153,0.0,3.0,76,0.00,,---,0.00,VWS V14.01,2013-08-06 01:15:00,
2013-08-05 21:21:00,76.2,68.1,30.05,South,169,3.0,3.0,76,0.00,,---,0.00,VWS V14.01,2013-08-06 01:21:00,
2013-08-05 21:26:00,76.1,68.0,30.04,SSW,203,4.0,4.0,76,0.00,,---,0.00,VWS V14.01,2013-08-06 01:26:00,
2013-08-05 21:31:00,76.2,68.1,30.04,South,178,5.0,6.0,76,0.00,,---,0.00,VWS V14.01,2013-08-06 01:31:00,
2013-08-05 21:37:00,76.3,67.8,30.05,SSE,165,2.0,6.0,75,0.00,,---,0.00,VWS V14.01,2013-08-06 01:37:00,
2013-08-05 21:42:00,76.3,67.8,30.05,South,172,4.0,6.0,75,0.00,,---,0.00,VWS V14.01,2013-08-06 01:42:00,
2013-08-05 21:47:00,76.4,67.9,30.04,South,190,3.0,5.0,75,0.00,,---,0.00,VWS V14.01,2013-08-06 01:47:00,
2013-08-05 21:52:00,76.4,67.9,30.04,SE,143,3.0,6.0,75,0.00,,---,0.00,VWS V14.01,2013-08-06 01:52:00,
2013-08-05 21:58:00,76.5,67.6,30.04,South,169,1.0,6.0,74,0.00,,---,0.00,VWS V14.01,2013-08-06 01:58:00,
2013-08-05 22:03:00,76.4,67.9,30.04,SW,215,2.0,4.0,75,0.00,,---,0.00,VWS V14.01,2013-08-06 02:03:00,
2013-08-05 22:09:00,76.3,67.8,30.05,South,186,3.0,7.0,75,0.00,,---,0.00,VWS V14.01,2013-08-06 02:09:00,
2013-08-05 22:14:00,76.2,67.7,30.05,South,186,3.0,7.0,75,0.00,,---,0.00,VWS V14.01,2013-08-06 02:14:00,
2013-08-05 22:20:00,76.1,67.6,30.05,South,178,2.0,7.0,75,0.00,,---,0.00,VWS V14.01,2013-08-06 02:20:00,
2013-08-05 22:25:00,75.9,67.4,30.05,SSW,197,4.0,7.0,75,0.00,,---,0.00,VWS V14.01,2013-08-06 02:25:00,
2013-08-05 22:30:00,75.7,67.2,30.05,SSW,192,0.0,7.0,75,0.00,,---,0.00,VWS V14.01,2013-08-06 02:30:00,
2013-08-05 22:35:00,75.6,67.1,30.05,SSE,149,1.0,7.0,75,0.00,,---,0.00,VWS V14.01,2013-08-06 02:35:00,
2013-08-05 22:41:00,75.4,67.3,30.05,South,170,2.0,7.0,76,0.00,,---,0.00,VWS V14.01,2013-08-06 02:41:00,
2013-08-05 22:46:00,75.3,67.2,30.05,South,169,4.0,4.0,76,0.00,,---,0.00,VWS V14.01,2013-08-06 02:46:00,
2013-08-05 22:52:00,75.2,67.1,30.05,SSE,166,3.0,7.0,76,0.00,,---,0.00,VWS V14.01,2013-08-06 02:52:00,
2013-08-05 22:58:00,75.1,67.0,30.05,SSE,159,3.0,7.0,76,0.00,,---,0.00,VWS V14.01,2013-08-06 02:58:00,
2013-08-05 23:03:00,74.9,67.2,30.05,South,169,1.0,5.0,77,0.00,,---,0.00,VWS V14.01,2013-08-06 03:03:00,
2013-08-05 23:08:00,74.8,67.1,30.05,SSW,194,4.0,7.0,77,0.00,,---,0.00,VWS V14.01,2013-08-06 03:08:00,
2013-08-05 23:13:00,74.7,67.0,30.05,South,177,2.0,7.0,77,0.00,,---,0.00,VWS V14.01,2013-08-06 03:13:00,
2013-08-05 23:19:00,74.6,66.9,30.05,South,176,5.0,6.0,77,0.00,,---,0.00,VWS V14.01,2013-08-06 03:19:00,
2013-08-05 23:24:00,74.5,66.8,30.05,SSE,160,2.0,7.0,77,0.00,,---,0.00,VWS V14.01,2013-08-06 03:24:00,
2013-08-05 23:29:00,74.4,66.7,30.06,South,176,2.0,7.0,77,0.00,,---,0.00,VWS V14.01,2013-08-06 03:29:00,
2013-08-05 23:35:00,74.3,66.6,30.05,SW,217,3.0,6.0,77,0.00,,---,0.00,VWS V14.01,2013-08-06 03:35:00,
2013-08-05 23:41:00,74.3,66.6,30.06,SSE,159,3.0,7.0,77,0.00,,---,0.00,VWS V14.01,2013-08-06 03:41:00,
2013-08-05 23:46:00,74.2,66.5,30.06,South,178,5.0,5.0,77,0.00,,---,0.00,VWS V14.01,2013-08-06 03:46:00,
2013-08-05 23:51:00,74.0,66.7,30.06,SSE,161,3.0,5.0,78,0.00,,---,0.00,VWS V14.01,2013-08-06 03:51:00,
2013-08-05 23:57:00,73.9,66.6,30.06,South,182,4.0,7.0,78,0.00,,---,0.00,VWS V14.01,2013-08-06 03:57:00,